createdAt,value
2019-04-03T00:00:58.546Z,25.30
2019-04-03T00:03:25.283Z,26.00
2019-04-03T00:05:51.948Z,21.35
2019-04-03T00:08:18.643Z,25.17
2019-04-03T00:10:45.425Z,28.73
2019-04-03T00:13:12.037Z,24.65
2019-04-03T00:15:38.706Z,23.50
2019-04-03T00:18:05.491Z,29.15
2019-04-03T00:20:32.158Z,23.77
2019-04-03T00:22:58.850Z,25.20
2019-04-03T00:25:25.631Z,25.20
2019-04-03T00:27:52.772Z,23.25
2019-04-03T00:30:21.872Z,24.30
2019-04-03T00:32:48.371Z,27.42
2019-04-03T00:35:15.033Z,23.25
2019-04-03T00:37:41.823Z,21.42
2019-04-03T00:40:08.596Z,22.77
2019-04-03T00:42:35.383Z,27.55
2019-04-03T00:45:24.535Z,22.05
2019-04-03T00:47:51.866Z,24.07
2019-04-03T00:50:18.634Z,24.18
2019-04-03T00:52:45.448Z,23.83
2019-04-03T00:55:12.196Z,24.72
2019-04-03T00:57:38.996Z,25.35
2019-04-03T01:00:11.643Z,24.98
2019-04-03T01:02:38.319Z,23.42
2019-04-03T01:05:05.394Z,23.98
2019-04-03T01:07:32.173Z,24.05
2019-04-03T01:09:59.603Z,24.47
2019-04-03T01:12:26.968Z,24.18
2019-04-03T01:14:54.376Z,26.85
2019-04-03T01:17:21.266Z,23.95
2019-04-03T01:19:48.136Z,26.35
2019-04-03T01:22:14.773Z,26.12
2019-04-03T01:24:41.929Z,26.17
2019-04-03T01:27:11.175Z,24.60
2019-04-03T01:29:37.382Z,27.22
2019-04-03T01:32:04.166Z,23.98
2019-04-03T01:34:30.861Z,21.82
2019-04-03T01:36:57.837Z,23.05
2019-04-03T01:39:24.651Z,21.75
2019-04-03T01:41:52.081Z,25.32
2019-04-03T01:44:18.843Z,21.77
2019-04-03T01:46:45.446Z,21.55
2019-04-03T01:49:12.966Z,20.68
2019-04-03T01:51:39.661Z,21.45
2019-04-03T01:54:06.443Z,18.52
2019-04-03T01:56:35.201Z,19.77
2019-04-03T01:59:01.987Z,22.15
2019-04-03T02:01:28.787Z,21.15
2019-04-03T02:03:55.529Z,19.73
2019-04-03T02:06:22.284Z,19.87
2019-04-03T02:08:48.911Z,18.65
2019-04-03T02:11:16.775Z,25.17
2019-04-03T02:13:44.315Z,19.98
2019-04-03T02:16:11.151Z,20.15
2019-04-03T02:18:37.950Z,20.27
2019-04-03T02:21:04.748Z,23.15
2019-04-03T02:23:31.543Z,15.38
2019-04-03T02:25:58.320Z,18.37
2019-04-03T02:28:25.099Z,20.23
2019-04-03T02:30:51.905Z,17.40
2019-04-03T02:33:18.694Z,17.07
2019-04-03T02:35:45.827Z,18.45
2019-04-03T02:38:12.526Z,19.10
2019-04-03T02:40:39.375Z,19.95
2019-04-03T02:43:06.033Z,20.20
2019-04-03T02:45:33.259Z,18.32
2019-04-03T02:47:59.949Z,20.57
2019-04-03T02:50:26.778Z,15.48
2019-04-03T02:52:56.697Z,18.85
2019-04-03T02:55:23.372Z,18.00
2019-04-03T02:57:50.391Z,17.10
2019-04-03T03:00:17.442Z,19.48
2019-04-03T03:02:45.541Z,21.80
2019-04-03T03:05:13.460Z,17.55
2019-04-03T03:07:40.286Z,20.25
2019-04-03T03:10:07.789Z,17.45
2019-04-03T03:12:36.545Z,15.83
2019-04-03T03:15:04.945Z,17.17
2019-04-03T03:17:33.405Z,19.40
2019-04-03T03:20:06.525Z,19.10
2019-04-03T03:22:33.506Z,23.35
2019-04-03T03:25:01.328Z,20.00
2019-04-03T03:27:28.812Z,19.65
2019-04-03T03:29:58.474Z,18.92
2019-04-03T03:32:31.340Z,19.15
2019-04-03T03:35:06.208Z,18.27
2019-04-03T03:37:23.265Z,15.18
2019-04-03T03:39:51.085Z,17.50
2019-04-03T03:42:18.736Z,15.78
2019-04-03T03:44:46.746Z,16.00
2019-04-03T03:47:15.092Z,18.20
2019-04-03T03:49:43.154Z,21.68
2019-04-03T03:52:11.084Z,23.00
2019-04-03T03:54:59.361Z,27.85
2019-04-03T03:57:26.850Z,26.27
2019-04-03T03:59:53.801Z,28.05
2019-04-03T04:02:20.973Z,30.97
2019-04-03T04:04:48.820Z,32.45
2019-04-03T04:07:16.428Z,26.50
2019-04-03T04:09:43.459Z,30.88
2019-04-03T04:12:10.283Z,32.42
2019-04-03T04:14:37.043Z,25.43
2019-04-03T04:17:25.664Z,20.25
2019-04-03T04:19:52.801Z,20.37
2019-04-03T04:22:19.583Z,15.23
2019-04-03T04:24:46.254Z,17.60
2019-04-03T04:27:13.243Z,22.05
2019-04-03T04:29:41.593Z,17.98
2019-04-03T04:32:08.928Z,19.32
2019-04-03T04:34:35.870Z,16.87
2019-04-03T04:37:03.146Z,19.52
2019-04-03T04:39:30.101Z,20.05
2019-04-03T04:41:56.940Z,20.05
2019-04-03T04:44:23.714Z,19.67
2019-04-03T04:46:50.414Z,21.10
2019-04-03T04:49:17.098Z,15.72
2019-04-03T04:51:43.773Z,18.15
2019-04-03T04:54:10.585Z,18.60
2019-04-03T04:56:38.104Z,18.50
2019-04-03T04:59:05.355Z,15.90
2019-04-03T05:01:32.332Z,17.92
2019-04-03T05:03:59.113Z,27.60
2019-04-03T05:06:28.537Z,30.65
2019-04-03T05:08:54.670Z,33.63
2019-04-03T05:11:21.354Z,29.15
2019-04-03T05:13:48.114Z,26.77
2019-04-03T05:16:15.091Z,30.30
2019-04-03T05:18:42.072Z,30.37
2019-04-03T05:21:08.856Z,25.85
2019-04-03T05:23:35.622Z,29.37
2019-04-03T05:26:02.376Z,25.10
2019-04-03T05:28:29.172Z,26.35
2019-04-03T05:30:55.876Z,25.85
2019-04-03T05:33:22.638Z,26.35
2019-04-03T05:35:49.360Z,25.08
2019-04-03T05:38:16.044Z,25.00
2019-04-03T05:40:42.852Z,24.43
2019-04-03T05:43:09.817Z,24.52
2019-04-03T05:45:36.593Z,27.22
2019-04-03T05:48:04.220Z,20.72
2019-04-03T05:50:31.364Z,20.23
2019-04-03T05:52:58.151Z,17.42
2019-04-03T05:55:24.918Z,17.35
2019-04-03T05:57:51.833Z,19.42
2019-04-03T06:00:18.603Z,20.57
2019-04-03T06:02:45.307Z,28.38
2019-04-03T06:05:13.132Z,26.48
2019-04-03T06:07:40.149Z,24.52
2019-04-03T06:10:07.259Z,21.80
2019-04-03T06:12:36.560Z,18.90
2019-04-03T06:15:03.600Z,19.62
2019-04-03T06:17:30.286Z,20.23
2019-04-03T06:19:56.954Z,23.73
2019-04-03T06:22:23.743Z,18.30
2019-04-03T06:24:50.414Z,17.85
2019-04-03T06:27:19.144Z,16.32
2019-04-03T06:29:45.667Z,20.50
2019-04-03T06:32:12.360Z,17.87
2019-04-03T06:34:42.709Z,13.20
2019-04-03T06:37:07.632Z,14.07
2019-04-03T06:39:34.833Z,14.38
2019-04-03T06:42:01.680Z,13.25
2019-04-03T06:44:28.265Z,14.38
2019-04-03T06:46:55.080Z,18.42
2019-04-03T06:49:21.622Z,21.77
2019-04-03T06:51:49.425Z,19.57
2019-04-03T06:54:17.148Z,16.10
2019-04-03T06:56:43.938Z,17.90
2019-04-03T06:59:10.743Z,17.05
2019-04-03T07:01:37.436Z,13.30
2019-04-03T07:04:05.847Z,15.98
2019-04-03T07:06:32.909Z,15.30
2019-04-03T07:08:59.673Z,15.60
2019-04-03T07:11:26.347Z,14.10
2019-04-03T07:13:54.333Z,15.25
2019-04-03T07:16:21.428Z,17.12
2019-04-03T07:18:48.430Z,12.70
2019-04-03T07:21:15.094Z,14.38
2019-04-03T07:23:41.903Z,13.93
2019-04-03T07:26:08.677Z,14.98
2019-04-03T07:28:35.369Z,15.10
2019-04-03T07:31:02.141Z,18.30
2019-04-03T07:33:29.429Z,14.45
2019-04-03T07:35:56.357Z,13.48
2019-04-03T07:38:22.986Z,12.00
2019-04-03T07:40:51.765Z,12.20
2019-04-03T07:43:18.461Z,14.03
2019-04-03T07:45:45.241Z,13.32
2019-04-03T07:48:12.033Z,10.45
2019-04-03T07:50:41.065Z,12.78
2019-04-03T07:53:07.300Z,11.08
2019-04-03T07:55:34.080Z,10.38
2019-04-03T07:58:01.034Z,10.60
2019-04-03T08:00:28.518Z,11.97
2019-04-03T08:02:55.251Z,8.83
2019-04-03T08:05:22.259Z,12.40
2019-04-03T08:07:48.926Z,9.38
2019-04-03T08:10:15.904Z,13.15
2019-04-03T08:12:42.821Z,12.53
2019-04-03T08:15:12.651Z,8.83
2019-04-03T08:17:38.575Z,10.45
2019-04-03T08:20:05.941Z,10.25
2019-04-03T08:22:33.591Z,8.93
2019-04-03T08:25:01.019Z,9.90
2019-04-03T08:27:27.892Z,10.25
2019-04-03T08:29:54.589Z,9.10
2019-04-03T08:32:21.375Z,13.43
2019-04-03T08:34:48.773Z,9.70
2019-04-03T08:37:27.675Z,11.83
2019-04-03T08:39:44.309Z,9.88
2019-04-03T08:42:11.050Z,13.78
2019-04-03T08:44:37.771Z,10.35
2019-04-03T08:47:04.400Z,9.05
2019-04-03T08:49:31.087Z,10.65
2019-04-03T08:51:58.229Z,9.30
2019-04-03T08:54:25.051Z,12.37
2019-04-03T08:56:51.866Z,9.93
2019-04-03T08:59:18.933Z,11.48
2019-04-03T09:01:45.975Z,11.48
2019-04-03T09:04:12.792Z,11.08
2019-04-03T09:06:39.579Z,9.68
2019-04-03T09:09:08.447Z,9.95
2019-04-03T09:11:36.298Z,12.53
2019-04-03T09:14:03.895Z,11.48
2019-04-03T09:16:31.705Z,11.35
2019-04-03T09:18:59.049Z,12.55
2019-04-03T09:21:26.126Z,12.78
2019-04-03T09:23:52.898Z,9.83
2019-04-03T09:26:19.853Z,41.00
2019-04-03T09:28:46.647Z,18.25
2019-04-03T09:31:13.324Z,13.13
2019-04-03T09:33:40.012Z,10.43
2019-04-03T09:36:06.786Z,10.95
2019-04-03T09:38:35.529Z,12.73
2019-04-03T09:41:02.244Z,15.65
2019-04-03T09:43:29.037Z,12.53
2019-04-03T09:45:55.911Z,11.35
2019-04-03T09:48:22.969Z,12.98
2019-04-03T09:50:49.918Z,10.23
2019-04-03T09:53:17.102Z,9.65
2019-04-03T09:55:43.859Z,10.08
2019-04-03T09:58:10.677Z,12.63
2019-04-03T10:00:37.550Z,10.35
2019-04-03T10:03:05.920Z,11.12
2019-04-03T10:05:32.911Z,14.47
2019-04-03T10:07:59.679Z,9.78
2019-04-03T10:10:26.831Z,11.75
2019-04-03T10:12:54.572Z,11.43
2019-04-03T10:15:21.934Z,10.63
2019-04-03T10:17:48.817Z,8.73
2019-04-03T10:20:17.275Z,9.23
2019-04-03T10:22:44.364Z,11.97
2019-04-03T10:25:11.497Z,8.48
2019-04-03T10:27:38.248Z,8.78
2019-04-03T10:30:06.388Z,9.28
2019-04-03T10:32:33.046Z,8.18
2019-04-03T10:35:00.040Z,8.35
2019-04-03T10:37:26.815Z,10.45
2019-04-03T10:39:53.969Z,9.00
2019-04-03T10:42:20.664Z,9.95
2019-04-03T10:44:47.556Z,7.83
2019-04-03T10:47:14.811Z,8.53
2019-04-03T10:49:41.631Z,8.05
2019-04-03T10:52:08.406Z,8.33
2019-04-03T10:54:37.584Z,8.33
2019-04-03T10:57:04.151Z,8.03
2019-04-03T10:59:31.072Z,10.15
2019-04-03T11:01:57.852Z,8.55
2019-04-03T11:04:24.513Z,9.50
2019-04-03T11:06:51.210Z,8.45
2019-04-03T11:09:17.999Z,9.60
2019-04-03T11:11:44.665Z,7.67
2019-04-03T11:14:11.863Z,9.70
2019-04-03T11:16:39.433Z,10.38
2019-04-03T11:19:07.346Z,8.18
2019-04-03T11:21:34.399Z,8.93
2019-04-03T11:24:01.355Z,9.48
2019-04-03T11:26:28.178Z,7.05
2019-04-03T11:28:54.928Z,8.20
2019-04-03T11:31:26.617Z,8.40
2019-04-03T11:33:51.461Z,10.75
2019-04-03T11:36:18.296Z,9.18
2019-04-03T11:38:45.069Z,8.08
2019-04-03T11:41:17.655Z,7.95
2019-04-03T11:43:40.825Z,9.43
2019-04-03T11:46:07.702Z,6.78
2019-04-03T11:48:34.652Z,7.75
2019-04-03T11:51:01.722Z,7.10
2019-04-03T11:53:29.144Z,9.50
2019-04-03T11:55:56.357Z,5.72
2019-04-03T11:58:23.325Z,5.37
2019-04-03T12:00:51.048Z,6.95
2019-04-03T12:03:17.802Z,5.83
2019-04-03T12:05:45.746Z,5.97
2019-04-03T12:08:13.184Z,5.70
2019-04-03T12:10:39.872Z,8.38
2019-04-03T12:13:07.048Z,5.30
2019-04-03T12:15:34.804Z,6.95
2019-04-03T12:18:02.499Z,6.20
2019-04-03T12:20:29.666Z,4.75
2019-04-03T12:22:56.461Z,5.22
2019-04-03T12:25:23.223Z,6.78
2019-04-03T12:27:50.025Z,6.03
2019-04-03T12:30:17.335Z,5.30
2019-04-03T12:32:48.616Z,5.22
2019-04-03T12:35:13.935Z,5.17
2019-04-03T12:37:41.327Z,8.28
2019-04-03T12:40:08.563Z,5.40
2019-04-03T12:42:35.777Z,5.30
2019-04-03T12:45:04.211Z,5.22
2019-04-03T12:47:31.381Z,6.67
2019-04-03T12:49:58.395Z,8.50
2019-04-03T12:52:25.313Z,5.53
2019-04-03T12:54:53.776Z,16.35
2019-04-03T12:57:21.100Z,23.83
2019-04-03T12:59:48.215Z,19.15
2019-04-03T13:02:14.984Z,34.13
2019-04-03T13:04:41.652Z,20.92
2019-04-03T13:07:08.850Z,22.80
2019-04-03T13:09:37.889Z,24.23
2019-04-03T13:12:04.900Z,21.57
2019-04-03T13:14:33.107Z,17.92
2019-04-03T13:17:00.611Z,19.82
2019-04-03T13:19:27.628Z,18.62
2019-04-03T13:21:54.360Z,15.20
2019-04-03T13:24:21.430Z,18.50
2019-04-03T13:26:48.313Z,15.85
2019-04-03T13:29:15.288Z,17.50
2019-04-03T13:31:44.474Z,15.60
2019-04-03T13:34:12.463Z,21.55
2019-04-03T13:36:39.264Z,19.07
2019-04-03T13:39:06.555Z,21.97
2019-04-03T13:41:34.774Z,20.32
2019-04-03T13:44:02.279Z,18.67
2019-04-03T13:46:28.985Z,20.48
2019-04-03T13:48:56.040Z,18.75
2019-04-03T13:51:24.172Z,18.32
2019-04-03T13:53:53.001Z,18.12
2019-04-03T13:56:23.112Z,21.77
2019-04-03T13:58:48.831Z,21.07
2019-04-03T14:01:16.217Z,26.00
2019-04-03T14:06:26.882Z,33.73
2019-04-03T14:08:53.546Z,29.70
2019-04-03T14:11:20.231Z,33.55
2019-04-03T14:13:46.785Z,32.70
2019-04-03T14:16:20.293Z,21.35
2019-04-03T14:18:42.374Z,27.40
2019-04-03T14:21:09.570Z,19.62
2019-04-03T14:23:36.830Z,22.73
2019-04-03T14:26:08.367Z,28.35
2019-04-03T14:28:35.290Z,24.18
2019-04-03T14:31:04.961Z,20.45
2019-04-03T14:33:42.229Z,20.50
2019-04-03T14:35:59.666Z,17.80
2019-04-03T14:38:28.611Z,19.07
2019-04-03T14:40:54.951Z,17.62
2019-04-03T14:43:22.328Z,13.32
2019-04-03T14:45:49.648Z,13.60
2019-04-03T14:48:16.418Z,11.80
2019-04-03T14:50:43.228Z,13.32
2019-04-03T14:53:09.932Z,11.12
2019-04-03T14:55:46.988Z,12.40
2019-04-03T14:58:05.506Z,12.93
2019-04-03T15:00:32.613Z,13.75
2019-04-03T15:02:59.399Z,13.18
2019-04-03T15:05:26.285Z,12.50
2019-04-03T15:07:53.923Z,12.43
2019-04-03T15:10:20.813Z,12.88
2019-04-03T15:12:47.740Z,11.65
2019-04-03T15:15:14.907Z,11.43
2019-04-03T15:17:41.667Z,10.82
2019-04-03T15:20:09.534Z,9.88
2019-04-03T15:22:36.446Z,11.00
2019-04-03T15:25:03.453Z,10.05
2019-04-03T15:27:30.239Z,16.02
2019-04-03T15:29:56.802Z,10.72
2019-04-03T15:32:23.393Z,10.80
2019-04-03T15:34:51.243Z,11.08
2019-04-03T15:37:18.544Z,11.03
2019-04-03T15:39:47.797Z,10.95
2019-04-03T15:42:14.035Z,11.90
2019-04-03T15:44:40.710Z,11.43
2019-04-03T15:47:09.338Z,11.60
2019-04-03T15:49:36.112Z,10.68
2019-04-03T15:52:02.971Z,10.78
2019-04-03T15:54:32.544Z,11.78
2019-04-03T15:56:58.854Z,11.88
2019-04-03T15:59:27.135Z,11.78
2019-04-03T16:01:54.783Z,11.65
2019-04-03T16:04:21.768Z,10.90
2019-04-03T16:06:48.441Z,11.75
2019-04-03T16:09:18.305Z,10.13
2019-04-03T16:11:43.907Z,12.33
2019-04-03T16:14:10.700Z,10.75
2019-04-03T16:16:37.378Z,11.38
2019-04-03T16:19:04.169Z,10.10
2019-04-03T16:21:31.447Z,10.10
2019-04-03T16:23:58.341Z,10.20
2019-04-03T16:26:25.626Z,12.75
2019-04-03T16:28:52.435Z,10.72
2019-04-03T16:31:20.559Z,11.25
2019-04-03T16:33:47.921Z,11.90
2019-04-03T16:36:16.575Z,11.48
2019-04-03T16:38:43.706Z,11.60
2019-04-03T16:41:11.633Z,13.55
2019-04-03T16:43:39.270Z,14.87
2019-04-03T16:46:06.045Z,11.83
2019-04-03T16:48:33.321Z,12.75
2019-04-03T16:51:00.838Z,13.30
2019-04-03T16:53:28.454Z,11.43
2019-04-03T16:55:55.168Z,11.68
2019-04-03T16:58:21.895Z,12.68
2019-04-03T17:00:49.448Z,11.93
2019-04-03T17:03:16.150Z,12.53
2019-04-03T17:05:44.036Z,15.30
2019-04-03T17:08:11.345Z,12.85
2019-04-03T17:10:40.358Z,12.13
2019-04-03T17:13:06.608Z,11.08
2019-04-03T17:15:35.107Z,13.03
2019-04-03T17:18:01.971Z,12.37
2019-04-03T17:20:28.735Z,11.45
2019-04-03T17:22:55.857Z,13.22
2019-04-03T17:25:23.258Z,12.68
2019-04-03T17:27:57.372Z,15.45
2019-04-03T17:30:19.467Z,12.23
2019-04-03T17:32:46.830Z,13.53
2019-04-03T17:35:15.038Z,11.95
2019-04-03T17:37:42.297Z,12.82
2019-04-03T17:40:09.563Z,12.65
2019-04-03T17:42:37.123Z,14.73
2019-04-03T17:45:05.836Z,16.75
2019-04-03T17:47:32.506Z,10.82
2019-04-03T17:49:59.883Z,15.40
2019-04-03T17:52:26.683Z,21.27
2019-04-03T17:54:53.485Z,17.20
2019-04-03T17:57:20.282Z,14.90
2019-04-03T17:59:48.844Z,15.30
2019-04-03T18:02:15.546Z,17.87
2019-04-03T18:04:42.229Z,19.15
2019-04-03T18:07:08.902Z,18.82
2019-04-03T18:09:36.419Z,15.43
2019-04-03T18:12:03.861Z,17.57
2019-04-03T18:14:30.571Z,20.62
2019-04-03T18:16:57.253Z,17.67
2019-04-03T18:19:36.580Z,19.52
2019-04-03T18:21:52.631Z,13.75
2019-04-03T18:24:19.423Z,17.07
2019-04-03T18:26:46.201Z,17.00
2019-04-03T18:29:14.026Z,15.43
2019-04-03T18:31:40.819Z,16.85
2019-04-03T18:34:07.509Z,16.32
2019-04-03T18:36:34.271Z,15.45
2019-04-03T18:39:01.063Z,18.25
2019-04-03T18:41:27.734Z,15.75
2019-04-03T18:43:55.058Z,15.78
2019-04-03T18:46:31.525Z,16.25
2019-04-03T18:48:54.690Z,16.17
2019-04-03T18:51:20.363Z,16.48
2019-04-03T18:53:47.087Z,16.55
2019-04-03T18:56:15.538Z,19.15
2019-04-03T18:58:44.065Z,18.17
2019-04-03T19:01:10.964Z,17.77
2019-04-03T19:03:37.631Z,16.93
2019-04-03T19:06:04.816Z,17.65
2019-04-03T19:08:31.584Z,15.90
2019-04-03T19:11:02.293Z,16.85
2019-04-03T19:13:26.788Z,18.87
2019-04-03T19:15:53.578Z,22.65
2019-04-03T19:18:20.219Z,23.25
2019-04-03T19:20:46.938Z,23.12
2019-04-03T19:23:13.543Z,22.82
2019-04-03T19:25:40.246Z,20.35
2019-04-03T19:28:06.827Z,20.97
2019-04-03T19:30:33.615Z,22.93
2019-04-03T19:33:00.326Z,30.35
2019-04-03T19:35:28.500Z,37.05
2019-04-03T19:37:55.479Z,32.63
2019-04-03T19:40:22.268Z,29.92
2019-04-03T19:42:49.106Z,32.10
2019-04-03T19:45:16.039Z,29.20
2019-04-03T19:47:42.827Z,28.17
2019-04-03T19:50:10.228Z,36.33
2019-04-03T19:52:37.513Z,38.73
2019-04-03T19:55:05.358Z,25.88
2019-04-03T19:57:32.150Z,34.18
2019-04-03T19:59:58.848Z,34.18
2019-04-03T20:02:25.695Z,36.42
2019-04-03T20:04:52.463Z,37.73
2019-04-03T20:07:19.149Z,44.60
2019-04-03T20:09:45.923Z,46.42
2019-04-03T20:12:12.604Z,54.90
2019-04-03T20:14:42.248Z,71.57
2019-04-03T20:17:07.869Z,77.60
2019-04-03T20:19:34.561Z,44.95
2019-04-03T20:22:01.245Z,29.67
2019-04-03T20:24:27.855Z,13.08
2019-04-03T20:26:54.446Z,18.00
2019-04-03T20:29:21.146Z,28.42
2019-04-03T20:31:47.816Z,17.55
2019-04-03T20:34:14.393Z,20.12
2019-04-03T20:36:41.069Z,15.98
2019-04-03T20:39:08.340Z,17.25
2019-04-03T20:41:35.327Z,20.50
2019-04-03T20:44:02.137Z,18.25
2019-04-03T20:46:28.908Z,19.25
2019-04-03T20:48:56.832Z,18.17
2019-04-03T20:51:24.169Z,22.95
2019-04-03T20:53:50.898Z,18.42
2019-04-03T20:56:17.615Z,17.40
2019-04-03T20:58:55.348Z,21.15
2019-04-03T21:01:12.997Z,18.05
2019-04-03T21:03:39.549Z,18.00
2019-04-03T21:06:06.456Z,18.25
2019-04-03T21:08:33.029Z,18.52
2019-04-03T21:11:01.747Z,21.25
2019-04-03T21:13:28.257Z,25.30
2019-04-03T21:15:54.816Z,21.27
2019-04-03T21:18:21.400Z,20.05
2019-04-03T21:20:48.163Z,21.73
2019-04-03T21:23:14.938Z,22.52
2019-04-03T21:25:41.519Z,34.63
2019-04-03T21:28:08.975Z,30.82
2019-04-03T21:30:36.864Z,42.43
2019-04-03T21:33:03.650Z,38.38
2019-04-03T21:35:30.211Z,45.20
2019-04-03T21:37:56.897Z,94.03
2019-04-03T21:40:23.690Z,59.35
2019-04-03T21:42:50.355Z,66.28
2019-04-03T21:45:17.128Z,62.03
2019-04-03T21:47:43.814Z,40.98
2019-04-03T21:50:10.692Z,57.93
2019-04-03T21:52:37.475Z,51.25
2019-04-03T21:55:05.507Z,37.20
2019-04-03T21:57:32.134Z,35.33
2019-04-03T21:59:58.925Z,51.92
2019-04-03T22:02:25.722Z,36.55
2019-04-03T22:04:53.877Z,46.42
2019-04-03T22:07:21.090Z,37.50
2019-04-03T22:09:47.670Z,46.40
2019-04-03T22:12:14.377Z,43.98
2019-04-03T22:14:42.912Z,43.05
2019-04-03T22:17:09.630Z,42.55
2019-04-03T22:19:36.290Z,30.40
2019-04-03T22:22:03.630Z,36.88
2019-04-03T22:24:30.551Z,45.98
2019-04-03T22:26:57.143Z,46.58
2019-04-03T22:29:23.821Z,37.40
2019-04-03T22:31:53.769Z,35.00
2019-04-03T22:34:19.072Z,36.20
2019-04-03T22:36:45.777Z,29.72
2019-04-03T22:39:13.755Z,24.25
2019-04-03T22:41:40.952Z,19.87
2019-04-03T22:44:08.981Z,44.77
2019-04-03T22:46:35.639Z,19.90
2019-04-03T22:49:02.439Z,25.37
2019-04-03T22:51:29.185Z,28.98
2019-04-03T22:53:55.862Z,31.70
2019-04-03T22:56:22.518Z,23.22
2019-04-03T22:58:52.680Z,30.45
2019-04-03T23:01:17.891Z,23.62
2019-04-03T23:03:44.574Z,24.77
2019-04-03T23:06:11.252Z,32.08
2019-04-03T23:08:37.935Z,33.73
2019-04-03T23:11:04.620Z,49.13
2019-04-03T23:13:31.523Z,52.70
2019-04-03T23:15:58.294Z,68.35
2019-04-03T23:18:24.989Z,77.32
2019-04-03T23:20:52.837Z,80.70
2019-04-03T23:23:22.311Z,86.40
2019-04-03T23:25:49.086Z,56.88
2019-04-03T23:28:15.894Z,73.78
2019-04-03T23:30:42.567Z,56.33
2019-04-03T23:33:10.449Z,60.38
2019-04-03T23:35:37.015Z,65.55
2019-04-03T23:38:03.799Z,59.75
2019-04-03T23:40:30.566Z,56.98
2019-04-03T23:42:57.346Z,57.90
2019-04-03T23:45:26.330Z,48.58
2019-04-03T23:47:53.016Z,47.13
2019-04-03T23:50:20.010Z,36.63
2019-04-03T23:52:48.373Z,55.48
2019-04-03T23:55:15.033Z,58.70
2019-04-03T23:57:41.757Z,58.15
